createdAt,value
2023-05-16T00:00:21.780Z,0.00
2023-05-16T00:01:21.767Z,0.00
2023-05-16T00:02:21.781Z,0.00
2023-05-16T00:03:21.915Z,0.00
2023-05-16T00:04:21.762Z,0.00
2023-05-16T00:05:21.719Z,0.00
2023-05-16T00:06:21.700Z,0.00
2023-05-16T00:07:21.686Z,0.00
2023-05-16T00:08:21.679Z,0.00
2023-05-16T00:09:21.672Z,0.00
2023-05-16T00:10:21.658Z,0.00
2023-05-16T00:11:21.631Z,0.00
2023-05-16T00:12:21.621Z,0.00
2023-05-16T00:13:21.611Z,0.00
2023-05-16T00:14:21.600Z,0.00
2023-05-16T00:15:21.611Z,0.00
2023-05-16T00:16:21.782Z,0.00
2023-05-16T00:17:21.574Z,0.00
2023-05-16T00:18:21.549Z,0.00
2023-05-16T00:19:21.566Z,0.00
2023-05-16T00:20:21.524Z,0.00
2023-05-16T00:21:23.623Z,0.00
2023-05-16T00:22:21.491Z,0.00
2023-05-16T00:23:21.479Z,0.00
2023-05-16T00:24:21.468Z,0.00
2023-05-16T00:25:21.459Z,0.00
2023-05-16T00:26:21.456Z,0.00
2023-05-16T00:27:21.432Z,0.00
2023-05-16T00:28:21.422Z,0.00
2023-05-16T00:29:21.408Z,0.00
2023-05-16T00:30:21.392Z,0.00
2023-05-16T00:31:21.432Z,0.00
2023-05-16T00:32:21.501Z,0.00
2023-05-16T00:33:21.349Z,0.00
2023-05-16T00:34:21.430Z,0.00
2023-05-16T00:35:21.322Z,0.00
2023-05-16T00:36:23.663Z,0.00
2023-05-16T00:37:21.300Z,0.00
2023-05-16T00:38:21.289Z,0.00
2023-05-16T00:39:21.285Z,0.00
2023-05-16T00:40:21.267Z,0.00
2023-05-16T00:41:21.248Z,0.00
2023-05-16T00:42:21.256Z,0.00
2023-05-16T00:43:21.231Z,0.00
2023-05-16T00:44:21.210Z,0.00
2023-05-16T00:45:21.196Z,0.00
2023-05-16T00:46:21.219Z,0.00
2023-05-16T00:47:21.249Z,0.00
2023-05-16T00:48:21.174Z,0.00
2023-05-16T00:49:21.145Z,0.00
2023-05-16T00:50:21.142Z,0.00
2023-05-16T00:51:21.126Z,0.00
2023-05-16T00:52:21.123Z,0.00
2023-05-16T00:53:21.100Z,0.00
2023-05-16T00:54:21.083Z,0.00
2023-05-16T00:55:21.069Z,0.00
2023-05-16T00:56:21.061Z,0.00
2023-05-16T00:57:21.064Z,0.00
2023-05-16T00:58:21.042Z,0.00
2023-05-16T00:59:21.022Z,0.00
2023-05-16T01:00:21.015Z,0.00
2023-05-16T01:01:21.017Z,0.00
2023-05-16T01:02:21.010Z,0.00
2023-05-16T01:03:21.071Z,0.00
2023-05-16T01:04:20.978Z,0.00
2023-05-16T01:05:20.959Z,0.00
2023-05-16T01:06:20.932Z,0.00
2023-05-16T01:07:20.914Z,0.00
2023-05-16T01:08:20.897Z,0.00
2023-05-16T01:09:20.885Z,0.00
2023-05-16T01:10:20.873Z,0.00
2023-05-16T01:11:20.861Z,0.00
2023-05-16T01:12:20.853Z,0.00
2023-05-16T01:13:20.839Z,0.00
2023-05-16T01:14:20.831Z,0.00
2023-05-16T01:15:20.831Z,0.00
2023-05-16T01:16:20.854Z,0.00
2023-05-16T01:17:20.819Z,0.00
2023-05-16T01:18:20.769Z,0.00
2023-05-16T01:19:20.822Z,0.00
2023-05-16T01:20:20.742Z,0.00
2023-05-16T01:21:20.730Z,0.00
2023-05-16T01:22:20.717Z,0.00
2023-05-16T01:23:20.701Z,0.00
2023-05-16T01:24:20.693Z,0.00
2023-05-16T01:25:20.678Z,0.00
2023-05-16T01:26:20.665Z,0.00
2023-05-16T01:27:20.650Z,0.00
2023-05-16T01:28:20.638Z,0.00
2023-05-16T01:29:20.661Z,0.00
2023-05-16T01:30:20.612Z,0.00
2023-05-16T01:31:20.655Z,0.00
2023-05-16T01:32:20.586Z,0.00
2023-05-16T01:33:20.581Z,0.00
2023-05-16T01:34:20.557Z,0.00
2023-05-16T01:35:20.572Z,0.00
2023-05-16T01:36:20.533Z,0.00
2023-05-16T01:37:20.519Z,0.00
2023-05-16T01:38:20.553Z,0.00
2023-05-16T01:39:20.492Z,0.00
2023-05-16T01:40:20.509Z,0.00
2023-05-16T01:41:20.509Z,0.00
2023-05-16T01:42:20.536Z,0.00
2023-05-16T01:43:20.512Z,0.00
2023-05-16T01:44:20.537Z,0.00
2023-05-16T01:45:20.416Z,0.00
2023-05-16T01:46:20.446Z,0.00
2023-05-16T01:47:20.389Z,0.00
2023-05-16T01:48:20.383Z,0.00
2023-05-16T01:49:20.364Z,0.00
2023-05-16T01:50:20.350Z,0.00
2023-05-16T01:51:20.362Z,0.00
2023-05-16T01:52:20.342Z,0.00
2023-05-16T01:53:20.323Z,0.00
2023-05-16T01:54:20.304Z,0.00
2023-05-16T01:55:20.299Z,0.00
2023-05-16T01:56:20.273Z,0.00
2023-05-16T01:57:20.264Z,0.00
2023-05-16T01:58:20.272Z,0.00
2023-05-16T01:59:20.234Z,0.00
2023-05-16T02:00:20.217Z,0.00
2023-05-16T02:01:20.232Z,0.00
2023-05-16T02:02:20.209Z,0.00
2023-05-16T02:03:20.241Z,0.00
2023-05-16T02:04:20.231Z,0.00
2023-05-16T02:05:20.186Z,0.00
2023-05-16T02:06:20.143Z,0.00
2023-05-16T02:07:20.151Z,0.00
2023-05-16T02:08:20.116Z,0.00
2023-05-16T02:09:20.108Z,0.00
2023-05-16T02:10:20.097Z,0.00
2023-05-16T02:11:20.079Z,0.00
2023-05-16T02:12:20.070Z,0.00
2023-05-16T02:13:20.049Z,0.00
2023-05-16T02:14:20.037Z,0.00
2023-05-16T02:15:20.039Z,0.00
2023-05-16T02:16:20.030Z,0.00
2023-05-16T02:17:20.091Z,0.00
2023-05-16T02:18:19.986Z,0.00
2023-05-16T02:19:20.081Z,0.00
2023-05-16T02:20:19.970Z,0.00
2023-05-16T02:21:19.963Z,0.00
2023-05-16T02:22:19.940Z,0.00
2023-05-16T02:23:19.945Z,0.00
2023-05-16T02:24:19.934Z,0.00
2023-05-16T02:25:19.899Z,0.00
2023-05-16T02:26:19.879Z,0.00
2023-05-16T02:27:19.873Z,0.00
2023-05-16T02:28:19.867Z,0.00
2023-05-16T02:29:19.883Z,0.00
2023-05-16T02:30:19.836Z,0.00
2023-05-16T02:31:19.835Z,0.00
2023-05-16T02:32:19.867Z,0.00
2023-05-16T02:33:19.790Z,0.00
2023-05-16T02:34:19.789Z,0.00
2023-05-16T02:35:19.764Z,0.00
2023-05-16T02:36:19.753Z,0.00
2023-05-16T02:37:19.748Z,0.00
2023-05-16T02:38:19.730Z,0.00
2023-05-16T02:39:19.798Z,0.00
2023-05-16T02:40:19.703Z,0.00
2023-05-16T02:41:19.687Z,0.00
2023-05-16T02:42:19.698Z,0.00
2023-05-16T02:43:19.659Z,0.00
2023-05-16T02:44:19.653Z,0.00
2023-05-16T02:45:19.633Z,0.00
2023-05-16T02:46:19.685Z,0.00
2023-05-16T02:47:19.668Z,0.00
2023-05-16T02:48:19.598Z,0.00
2023-05-16T02:49:19.587Z,0.00
2023-05-16T02:50:19.577Z,0.00
2023-05-16T02:51:19.557Z,0.00
2023-05-16T02:52:19.546Z,0.00
2023-05-16T02:53:19.531Z,0.00
2023-05-16T02:54:19.523Z,0.00
2023-05-16T02:55:23.867Z,0.00
2023-05-16T02:56:19.503Z,0.00
2023-05-16T02:57:19.478Z,0.00
2023-05-16T02:58:19.467Z,0.00
2023-05-16T02:59:19.455Z,0.00
2023-05-16T03:00:19.453Z,0.00
2023-05-16T03:01:19.468Z,0.00
2023-05-16T03:02:19.480Z,0.00
2023-05-16T03:03:19.449Z,0.00
2023-05-16T03:04:19.395Z,0.00
2023-05-16T03:05:19.378Z,0.00
2023-05-16T03:06:19.367Z,0.00
2023-05-16T03:07:19.350Z,0.00
2023-05-16T03:08:19.342Z,0.00
2023-05-16T03:09:19.324Z,0.00
2023-05-16T03:10:19.312Z,0.00
2023-05-16T03:11:19.333Z,0.00
2023-05-16T03:12:19.282Z,0.00
2023-05-16T03:13:19.272Z,0.00
2023-05-16T03:14:19.262Z,0.00
2023-05-16T03:15:19.253Z,4.00
2023-05-16T03:16:19.299Z,0.00
2023-05-16T03:17:19.263Z,0.00
2023-05-16T03:18:19.216Z,4.00
2023-05-16T03:19:19.296Z,4.00
2023-05-16T03:20:19.226Z,4.00
2023-05-16T03:21:19.197Z,4.00
2023-05-16T03:22:19.174Z,8.00
2023-05-16T03:23:19.142Z,4.00
2023-05-16T03:24:19.167Z,8.00
2023-05-16T03:25:19.115Z,8.00
2023-05-16T03:26:19.105Z,8.00
2023-05-16T03:27:19.118Z,8.00
2023-05-16T03:28:19.078Z,12.00
2023-05-16T03:29:19.066Z,12.00
2023-05-16T03:30:19.056Z,12.00
2023-05-16T03:31:19.075Z,16.00
2023-05-16T03:32:19.123Z,20.00
2023-05-16T03:33:19.026Z,20.00
2023-05-16T03:34:19.009Z,20.00
2023-05-16T03:35:19.002Z,24.00
2023-05-16T03:36:19.019Z,24.00
2023-05-16T03:37:18.970Z,24.00
2023-05-16T03:38:18.949Z,28.00
2023-05-16T03:39:18.943Z,32.00
2023-05-16T03:40:18.930Z,40.00
2023-05-16T03:41:18.909Z,44.00
2023-05-16T03:42:18.929Z,48.00
2023-05-16T03:43:18.913Z,52.00
2023-05-16T03:44:18.879Z,56.00
2023-05-16T03:45:18.876Z,60.00
2023-05-16T03:46:18.903Z,60.00
2023-05-16T03:47:18.837Z,68.00
2023-05-16T03:48:18.833Z,88.00
2023-05-16T03:49:18.810Z,100.00
2023-05-16T03:50:18.808Z,112.00
2023-05-16T03:51:18.781Z,116.00
2023-05-16T03:52:18.773Z,116.00
2023-05-16T03:53:18.758Z,116.00
2023-05-16T03:54:18.749Z,116.00
2023-05-16T03:55:18.734Z,124.00
2023-05-16T03:56:18.736Z,128.00
2023-05-16T03:57:18.706Z,120.00
2023-05-16T03:58:18.698Z,108.00
2023-05-16T03:59:18.712Z,96.00
2023-05-16T04:00:18.669Z,92.00
2023-05-16T04:01:18.660Z,92.00
2023-05-16T04:02:19.101Z,96.00
2023-05-16T04:03:18.688Z,100.00
2023-05-16T04:04:18.611Z,104.00
2023-05-16T04:05:18.627Z,108.00
2023-05-16T04:06:18.738Z,108.00
2023-05-16T04:07:18.589Z,112.00
2023-05-16T04:08:18.575Z,116.00
2023-05-16T04:09:18.559Z,116.00
2023-05-16T04:10:18.546Z,120.00
2023-05-16T04:11:18.546Z,124.00
2023-05-16T04:12:18.542Z,128.00
2023-05-16T04:13:18.577Z,132.00
2023-05-16T04:14:18.485Z,144.00
2023-05-16T04:15:18.501Z,152.00
2023-05-16T04:16:18.506Z,164.00
2023-05-16T04:17:18.451Z,184.00
2023-05-16T04:18:18.537Z,200.00
2023-05-16T04:19:18.652Z,228.00
2023-05-16T04:20:18.412Z,252.00
2023-05-16T04:21:18.396Z,272.00
2023-05-16T04:22:18.386Z,292.00
2023-05-16T04:23:18.368Z,300.00
2023-05-16T04:24:18.354Z,304.00
2023-05-16T04:25:18.350Z,312.00
2023-05-16T04:26:18.345Z,312.00
2023-05-16T04:27:18.315Z,320.00
2023-05-16T04:28:18.300Z,320.00
2023-05-16T04:29:18.289Z,320.00
2023-05-16T04:30:18.271Z,320.00
2023-05-16T04:31:18.350Z,320.00
2023-05-16T04:32:18.251Z,316.00
2023-05-16T04:33:18.237Z,316.00
2023-05-16T04:34:18.228Z,316.00
2023-05-16T04:36:18.195Z,328.00
2023-05-16T04:37:18.185Z,336.00
2023-05-16T04:38:18.169Z,344.00
2023-05-16T04:39:18.157Z,356.00
2023-05-16T04:40:18.141Z,364.00
2023-05-16T04:41:18.145Z,376.00
2023-05-16T04:42:18.114Z,384.00
2023-05-16T04:43:18.101Z,396.00
2023-05-16T04:44:18.095Z,404.00
2023-05-16T04:45:18.076Z,412.00
2023-05-16T04:46:18.085Z,436.00
2023-05-16T04:47:18.074Z,456.00
2023-05-16T04:48:18.041Z,480.00
2023-05-16T04:49:18.027Z,504.00
2023-05-16T04:50:18.015Z,524.00
2023-05-16T04:51:18.015Z,540.00
2023-05-16T04:52:17.996Z,552.00
2023-05-16T04:53:17.973Z,560.00
2023-05-16T04:54:17.981Z,572.00
2023-05-16T04:55:17.951Z,568.00
2023-05-16T04:56:17.929Z,544.00
2023-05-16T04:57:17.920Z,528.00
2023-05-16T04:58:17.908Z,536.00
2023-05-16T04:59:17.895Z,532.00
2023-05-16T05:00:17.906Z,532.00
2023-05-16T05:01:17.925Z,528.00
2023-05-16T05:02:17.864Z,536.00
2023-05-16T05:03:17.899Z,540.00
2023-05-16T05:04:17.869Z,544.00
2023-05-16T05:05:17.846Z,544.00
2023-05-16T05:06:17.800Z,552.00
2023-05-16T05:07:17.790Z,564.00
2023-05-16T05:08:17.775Z,576.00
2023-05-16T05:09:17.761Z,592.00
2023-05-16T05:10:17.750Z,600.00
2023-05-16T05:11:17.738Z,616.00
2023-05-16T05:12:17.736Z,612.00
2023-05-16T05:13:17.710Z,636.00
2023-05-16T05:14:17.690Z,656.00
2023-05-16T05:15:17.685Z,672.00
2023-05-16T05:16:17.669Z,692.00
2023-05-16T05:17:17.695Z,700.00
2023-05-16T05:18:17.766Z,720.00
2023-05-16T05:19:17.680Z,756.00
2023-05-16T05:20:17.617Z,792.00
2023-05-16T05:21:17.609Z,832.00
2023-05-16T05:22:17.622Z,880.00
2023-05-16T05:23:17.577Z,932.00
2023-05-16T05:24:17.574Z,976.00
2023-05-16T05:25:17.552Z,1016.00
2023-05-16T05:26:17.541Z,1056.00
2023-05-16T05:27:17.522Z,1096.00
2023-05-16T05:28:17.512Z,1128.00
2023-05-16T05:29:17.509Z,1168.00
2023-05-16T05:30:17.490Z,1196.00
2023-05-16T05:31:17.544Z,1212.00
2023-05-16T05:32:17.470Z,1248.00
2023-05-16T05:33:17.512Z,1296.00
2023-05-16T05:34:17.433Z,1352.00
2023-05-16T05:35:17.452Z,1416.00
2023-05-16T05:36:17.420Z,1480.00
2023-05-16T05:37:17.396Z,1540.00
2023-05-16T05:38:17.380Z,1592.00
2023-05-16T05:39:17.373Z,1636.00
2023-05-16T05:40:17.350Z,1668.00
2023-05-16T05:41:17.349Z,1696.00
2023-05-16T05:42:17.327Z,1716.00
2023-05-16T05:43:17.319Z,1748.00
2023-05-16T05:44:17.314Z,1780.00
2023-05-16T05:45:17.306Z,1796.00
2023-05-16T05:46:17.388Z,1804.00
2023-05-16T05:47:17.268Z,1824.00
2023-05-16T05:48:17.245Z,1860.00
2023-05-16T05:49:17.237Z,1896.00
2023-05-16T05:50:17.220Z,1940.00
2023-05-16T05:51:17.238Z,1964.00
2023-05-16T05:52:17.196Z,1984.00
2023-05-16T05:53:17.178Z,1992.00
2023-05-16T05:54:17.171Z,1976.00
2023-05-16T05:55:17.174Z,1964.00
2023-05-16T05:56:17.141Z,1944.00
2023-05-16T05:57:17.142Z,1928.00
2023-05-16T05:58:17.115Z,1888.00
2023-05-16T05:59:17.102Z,1872.00
2023-05-16T06:00:17.091Z,1884.00
2023-05-16T06:01:17.082Z,1896.00
2023-05-16T06:02:17.124Z,1904.00
2023-05-16T06:03:17.145Z,1908.00
2023-05-16T06:04:17.039Z,1888.00
2023-05-16T06:05:17.056Z,1944.00
2023-05-16T06:06:17.020Z,2084.00
2023-05-16T06:07:17.038Z,2212.00
2023-05-16T06:08:16.982Z,2312.00
2023-05-16T06:09:16.986Z,2460.00
2023-05-16T06:10:17.022Z,2712.00
2023-05-16T06:11:16.953Z,2616.00
2023-05-16T06:12:16.937Z,2624.00
2023-05-16T06:13:16.924Z,2936.00
2023-05-16T06:14:16.910Z,3220.00
2023-05-16T06:15:16.921Z,3216.00
2023-05-16T06:16:16.958Z,3116.00
2023-05-16T06:17:16.952Z,2872.00
2023-05-16T06:18:16.997Z,2604.00
2023-05-16T06:19:16.927Z,2448.00
2023-05-16T06:20:16.841Z,2412.00
2023-05-16T06:21:16.817Z,2712.00
2023-05-16T06:22:16.809Z,2960.00
2023-05-16T06:23:17.278Z,2848.00
2023-05-16T06:24:16.783Z,2636.00
2023-05-16T06:25:16.768Z,2540.00
2023-05-16T06:26:16.759Z,2432.00
2023-05-16T06:27:16.753Z,2296.00
2023-05-16T06:28:16.733Z,2312.00
2023-05-16T06:29:16.717Z,2332.00
2023-05-16T06:30:16.710Z,2272.00
2023-05-16T06:31:16.763Z,2188.00
2023-05-16T06:32:16.682Z,2360.00
2023-05-16T06:33:16.667Z,2392.00
2023-05-16T06:34:16.657Z,2308.00
2023-05-16T06:35:16.640Z,2752.00
2023-05-16T06:36:16.622Z,3000.00
2023-05-16T06:37:16.615Z,3216.00
2023-05-16T06:38:16.607Z,3348.00
2023-05-16T06:39:16.615Z,3432.00
2023-05-16T06:40:16.577Z,3456.00
2023-05-16T06:41:16.580Z,3324.00
2023-05-16T06:42:16.558Z,3140.00
2023-05-16T06:43:16.540Z,3292.00
2023-05-16T06:44:16.567Z,3904.00
2023-05-16T06:45:16.512Z,4644.00
2023-05-16T06:46:16.584Z,5000.00
2023-05-16T06:47:16.489Z,4960.00
2023-05-16T06:48:16.506Z,4900.00
2023-05-16T06:49:16.469Z,4772.00
2023-05-16T06:50:16.470Z,4552.00
2023-05-16T06:51:16.454Z,4284.00
2023-05-16T06:52:16.469Z,3904.00
2023-05-16T06:53:16.413Z,3692.00
2023-05-16T06:54:16.394Z,3572.00
2023-05-16T06:55:16.424Z,3556.00
2023-05-16T06:56:16.383Z,3620.00
2023-05-16T06:57:16.366Z,3588.00
2023-05-16T06:58:16.352Z,3456.00
2023-05-16T06:59:16.346Z,3524.00
2023-05-16T07:00:16.317Z,3840.00
2023-05-16T07:01:16.367Z,4080.00
2023-05-16T07:02:16.371Z,4280.00
2023-05-16T07:03:16.353Z,3984.00
2023-05-16T07:04:16.343Z,4004.00
2023-05-16T07:05:16.271Z,4148.00
2023-05-16T07:06:16.239Z,4256.00
2023-05-16T07:07:16.232Z,4040.00
2023-05-16T07:08:16.210Z,3836.00
2023-05-16T07:09:16.199Z,3696.00
2023-05-16T07:10:16.191Z,3712.00
2023-05-16T07:11:16.238Z,3844.00
2023-05-16T07:12:16.160Z,4088.00
2023-05-16T07:13:16.161Z,4364.00
2023-05-16T07:14:16.139Z,4584.00
2023-05-16T07:15:16.133Z,5160.00
2023-05-16T07:16:16.156Z,5848.00
2023-05-16T07:17:16.099Z,5700.00
2023-05-16T07:18:16.168Z,4948.00
2023-05-16T07:19:16.131Z,4524.00
2023-05-16T07:20:16.060Z,4216.00
2023-05-16T07:21:16.051Z,3864.00
2023-05-16T07:22:16.030Z,3864.00
2023-05-16T07:23:16.036Z,3892.00
2023-05-16T07:24:16.007Z,3628.00
2023-05-16T07:25:16.023Z,3592.00
2023-05-16T07:26:15.983Z,3628.00
2023-05-16T07:27:15.993Z,3544.00
2023-05-16T07:28:15.956Z,3632.00
2023-05-16T07:29:15.944Z,3900.00
2023-05-16T07:30:15.942Z,4132.00
2023-05-16T07:31:15.927Z,4512.00
2023-05-16T07:32:16.064Z,4676.00
2023-05-16T07:33:15.898Z,4880.00
2023-05-16T07:34:15.887Z,5176.00
2023-05-16T07:35:15.863Z,5568.00
2023-05-16T07:36:17.522Z,5836.00
2023-05-16T07:37:15.845Z,5984.00
2023-05-16T07:38:15.834Z,6364.00
2023-05-16T07:39:15.821Z,6596.00
2023-05-16T07:40:15.802Z,6916.00
2023-05-16T07:41:15.787Z,7168.00
2023-05-16T07:42:15.780Z,7456.00
2023-05-16T07:43:15.815Z,7956.00
2023-05-16T07:44:15.746Z,8548.00
2023-05-16T07:45:15.738Z,9440.00
2023-05-16T07:46:15.777Z,10396.00
2023-05-16T07:47:15.716Z,10596.00
2023-05-16T07:48:15.762Z,11036.00
2023-05-16T07:49:15.690Z,11128.00
2023-05-16T07:50:15.672Z,11852.00
2023-05-16T07:51:15.672Z,12216.00
2023-05-16T07:52:15.637Z,11452.00
2023-05-16T07:53:15.636Z,10508.00
2023-05-16T07:54:15.624Z,9268.00
2023-05-16T07:55:15.604Z,8148.00
2023-05-16T07:56:15.597Z,7644.00
2023-05-16T07:57:15.586Z,7808.00
2023-05-16T07:58:15.569Z,8468.00
2023-05-16T07:59:15.645Z,8304.00
2023-05-16T08:00:15.534Z,8352.00
2023-05-16T08:01:15.520Z,8488.00
2023-05-16T08:02:15.594Z,8320.00
2023-05-16T08:03:15.585Z,7920.00
2023-05-16T08:04:15.486Z,7412.00
2023-05-16T08:05:15.499Z,7196.00
2023-05-16T08:06:15.566Z,7088.00
2023-05-16T08:07:15.445Z,7132.00
2023-05-16T08:08:15.439Z,7376.00
2023-05-16T08:09:15.421Z,7044.00
2023-05-16T08:10:15.405Z,6824.00
2023-05-16T08:11:15.396Z,6200.00
2023-05-16T08:12:15.379Z,6060.00
2023-05-16T08:13:15.371Z,5972.00
2023-05-16T08:14:15.349Z,5904.00
2023-05-16T08:15:15.405Z,5712.00
2023-05-16T08:16:15.397Z,5656.00
2023-05-16T08:17:15.317Z,5684.00
2023-05-16T08:18:15.388Z,5728.00
2023-05-16T08:19:15.340Z,5456.00
2023-05-16T08:20:15.284Z,5504.00
2023-05-16T08:21:15.263Z,5712.00
2023-05-16T08:22:15.251Z,6100.00
2023-05-16T08:23:15.241Z,6572.00
2023-05-16T08:24:17.057Z,6988.00
2023-05-16T08:25:15.228Z,7356.00
2023-05-16T08:26:15.201Z,7732.00
2023-05-16T08:27:15.187Z,8148.00
2023-05-16T08:28:15.177Z,8728.00
2023-05-16T08:29:15.158Z,9924.00
2023-05-16T08:30:15.152Z,11256.00
2023-05-16T08:31:15.251Z,12212.00
2023-05-16T08:32:15.123Z,12908.00
2023-05-16T08:33:15.188Z,12676.00
2023-05-16T08:34:15.103Z,11744.00
2023-05-16T08:35:15.081Z,10896.00
2023-05-16T08:36:15.072Z,10624.00
2023-05-16T08:37:17.223Z,11572.00
2023-05-16T08:38:15.109Z,13384.00
2023-05-16T08:39:15.044Z,15556.00
2023-05-16T08:40:15.015Z,17280.00
2023-05-16T08:41:15.023Z,17984.00
2023-05-16T08:42:14.997Z,18176.00
2023-05-16T08:44:14.973Z,18304.00
2023-05-16T08:45:14.973Z,17952.00
2023-05-16T08:46:14.976Z,16864.00
2023-05-16T08:47:15.027Z,15640.00
2023-05-16T08:48:14.947Z,14780.00
2023-05-16T08:49:14.899Z,14100.00
2023-05-16T08:50:14.889Z,13540.00
2023-05-16T08:51:14.881Z,12912.00
2023-05-16T08:52:14.872Z,12368.00
2023-05-16T08:53:14.858Z,12080.00
2023-05-16T08:54:14.840Z,11876.00
2023-05-16T08:55:14.834Z,11844.00
2023-05-16T08:56:14.813Z,11872.00
2023-05-16T08:57:14.801Z,11864.00
2023-05-16T08:58:14.830Z,12056.00
2023-05-16T08:59:14.774Z,12332.00
2023-05-16T09:00:14.760Z,12552.00
2023-05-16T09:01:14.793Z,12680.00
2023-05-16T09:02:14.735Z,12764.00
2023-05-16T09:03:14.768Z,12920.00
2023-05-16T09:04:14.812Z,13052.00
2023-05-16T09:05:14.698Z,13216.00
2023-05-16T09:06:14.681Z,13412.00
2023-05-16T09:07:14.667Z,13796.00
2023-05-16T09:08:14.655Z,14192.00
2023-05-16T09:09:14.646Z,14596.00
2023-05-16T09:10:14.635Z,14952.00
2023-05-16T09:11:14.616Z,15120.00
2023-05-16T09:12:14.603Z,15380.00
2023-05-16T09:13:14.587Z,15932.00
2023-05-16T09:14:14.582Z,16164.00
2023-05-16T09:15:14.566Z,16384.00
2023-05-16T09:16:14.552Z,17024.00
2023-05-16T09:17:15.533Z,17664.00
2023-05-16T09:18:14.550Z,18272.00
2023-05-16T09:19:14.575Z,19040.00
2023-05-16T09:20:14.531Z,19872.00
2023-05-16T09:21:14.491Z,19744.00
2023-05-16T09:22:14.491Z,19168.00
2023-05-16T09:23:14.458Z,18784.00
2023-05-16T09:24:14.449Z,20096.00
2023-05-16T09:25:28.342Z,20160.00
2023-05-16T09:26:14.421Z,22624.00
2023-05-16T09:27:14.408Z,24224.00
2023-05-16T09:28:14.399Z,24128.00
2023-05-16T09:29:14.389Z,24160.00
2023-05-16T09:30:14.371Z,22976.00
2023-05-16T09:31:14.401Z,22336.00
2023-05-16T09:32:14.389Z,26368.00
2023-05-16T09:33:14.374Z,28896.00
2023-05-16T09:34:14.319Z,28288.00
2023-05-16T09:35:14.360Z,28096.00
2023-05-16T09:36:14.306Z,30528.00
2023-05-16T09:37:14.285Z,27648.00
2023-05-16T09:38:14.269Z,30656.00
2023-05-16T09:39:14.254Z,29696.00
2023-05-16T09:40:14.252Z,31232.00
2023-05-16T09:41:14.231Z,34464.00
2023-05-16T09:42:14.215Z,33760.00
2023-05-16T09:43:14.202Z,36608.00
2023-05-16T09:44:14.195Z,37792.00
2023-05-16T09:45:14.173Z,36992.00
2023-05-16T09:46:14.247Z,39776.00
2023-05-16T09:47:14.153Z,35712.00
2023-05-16T09:48:14.186Z,40800.00
2023-05-16T09:49:14.132Z,42112.00
2023-05-16T09:50:16.540Z,50560.00
2023-05-16T09:51:14.175Z,42624.00
2023-05-16T09:52:14.084Z,31776.00
2023-05-16T09:53:14.076Z,26944.00
2023-05-16T09:54:14.062Z,39200.00
2023-05-16T09:55:14.047Z,38592.00
2023-05-16T09:56:14.038Z,48928.00
2023-05-16T09:57:14.022Z,28896.00
2023-05-16T09:58:14.008Z,33056.00
2023-05-16T09:59:13.995Z,24896.00
2023-05-16T10:00:13.981Z,49856.00
2023-05-16T10:01:13.969Z,24416.00
2023-05-16T10:02:14.080Z,27456.00
2023-05-16T10:03:13.993Z,50816.00
2023-05-16T10:04:14.029Z,28000.00
2023-05-16T10:05:13.917Z,36160.00
2023-05-16T10:06:13.942Z,60544.00
2023-05-16T10:07:13.966Z,62496.00
2023-05-16T10:08:13.880Z,61856.00
2023-05-16T10:09:13.864Z,60352.00
2023-05-16T10:10:13.867Z,61568.00
2023-05-16T10:11:13.853Z,63520.00
2023-05-16T10:12:13.828Z,64448.00
2023-05-16T10:13:13.816Z,53536.00
2023-05-16T10:14:13.808Z,64544.00
2023-05-16T10:15:13.790Z,61984.00
2023-05-16T10:16:13.846Z,63200.00
2023-05-16T10:17:13.763Z,66848.00
2023-05-16T10:18:13.763Z,67264.00
2023-05-16T10:19:13.805Z,18176.00
2023-05-16T10:20:13.726Z,62976.00
2023-05-16T10:21:13.715Z,63072.00
2023-05-16T10:22:13.715Z,61152.00
2023-05-16T10:23:13.718Z,58240.00
2023-05-16T10:24:13.675Z,41952.00
2023-05-16T10:25:13.675Z,59584.00
2023-05-16T10:26:13.652Z,20096.00
2023-05-16T10:27:13.638Z,33984.00
2023-05-16T10:28:13.639Z,63648.00
2023-05-16T10:29:13.609Z,63712.00
2023-05-16T10:30:13.601Z,64096.00
2023-05-16T10:31:13.628Z,63936.00
2023-05-16T10:32:13.666Z,62880.00
2023-05-16T10:33:13.690Z,46464.00
2023-05-16T10:34:13.550Z,33760.00
2023-05-16T10:35:13.543Z,23808.00
2023-05-16T10:36:13.536Z,23840.00
2023-05-16T10:37:13.522Z,20000.00
2023-05-16T10:38:13.506Z,66656.00
2023-05-16T10:39:13.705Z,46528.00
2023-05-16T10:40:13.481Z,18432.00
2023-05-16T10:41:13.460Z,23328.00
2023-05-16T10:42:13.447Z,60800.00
2023-05-16T10:43:13.434Z,60896.00
2023-05-16T10:44:13.417Z,63072.00
2023-05-16T10:45:13.406Z,55296.00
2023-05-16T10:46:13.442Z,35776.00
2023-05-16T10:47:13.382Z,24128.00
2023-05-16T10:48:13.458Z,21824.00
2023-05-16T10:49:13.359Z,56672.00
2023-05-16T10:50:13.345Z,60768.00
2023-05-16T10:51:13.331Z,60064.00
2023-05-16T10:52:13.327Z,59872.00
2023-05-16T10:53:13.306Z,57856.00
2023-05-16T10:54:13.313Z,59744.00
2023-05-16T10:55:13.350Z,59808.00
2023-05-16T10:56:13.308Z,58400.00
2023-05-16T10:57:13.254Z,58528.00
2023-05-16T10:58:13.246Z,59296.00
2023-05-16T10:59:13.241Z,59712.00
2023-05-16T11:00:13.221Z,60064.00
2023-05-16T11:01:13.260Z,59680.00
2023-05-16T11:02:13.225Z,61248.00
2023-05-16T11:03:13.275Z,60608.00
2023-05-16T11:04:13.174Z,26048.00
2023-05-16T11:05:13.163Z,55936.00
2023-05-16T11:06:13.146Z,57280.00
2023-05-16T11:07:13.152Z,17792.00
2023-05-16T11:08:13.123Z,56640.00
2023-05-16T11:09:13.114Z,56032.00
2023-05-16T11:10:13.098Z,53728.00
2023-05-16T11:11:13.148Z,53504.00
2023-05-16T11:12:13.076Z,53536.00
2023-05-16T11:13:13.059Z,53952.00
2023-05-16T11:14:13.048Z,55776.00
2023-05-16T11:15:13.032Z,56800.00
2023-05-16T11:16:13.029Z,59456.00
2023-05-16T11:17:13.348Z,51136.00
2023-05-16T11:18:13.024Z,19424.00
2023-05-16T11:19:13.058Z,18912.00
2023-05-16T11:20:12.979Z,19296.00
2023-05-16T11:21:12.962Z,21216.00
2023-05-16T11:22:12.953Z,19168.00
2023-05-16T11:23:12.937Z,18400.00
2023-05-16T11:24:12.926Z,58496.00
2023-05-16T11:25:12.912Z,56896.00
2023-05-16T11:26:12.900Z,56000.00
2023-05-16T11:27:12.912Z,55648.00
2023-05-16T11:28:12.886Z,54688.00
2023-05-16T11:29:12.864Z,54816.00
2023-05-16T11:30:12.880Z,55200.00
2023-05-16T11:31:12.896Z,55296.00
2023-05-16T11:32:12.827Z,56064.00
2023-05-16T11:33:12.963Z,56096.00
2023-05-16T11:34:12.796Z,55008.00
2023-05-16T11:35:14.667Z,55264.00
2023-05-16T11:36:16.328Z,52768.00
2023-05-16T11:37:12.764Z,41632.00
2023-05-16T11:38:12.750Z,17920.00
2023-05-16T11:39:12.741Z,58496.00
2023-05-16T11:40:12.726Z,18240.00
2023-05-16T11:41:12.720Z,17248.00
2023-05-16T11:42:12.701Z,16304.00
2023-05-16T11:43:12.747Z,16512.00
2023-05-16T11:44:12.680Z,51552.00
2023-05-16T11:45:12.670Z,20192.00
2023-05-16T11:46:12.684Z,54368.00
2023-05-16T11:47:12.764Z,31872.00
2023-05-16T11:48:18.967Z,47680.00
2023-05-16T11:49:14.631Z,50752.00
2023-05-16T11:50:12.667Z,32096.00
2023-05-16T11:51:12.592Z,53376.00
2023-05-16T11:52:12.577Z,53760.00
2023-05-16T11:53:12.567Z,53056.00
2023-05-16T11:54:12.553Z,51264.00
2023-05-16T11:55:12.661Z,49504.00
2023-05-16T11:56:12.522Z,48800.00
2023-05-16T11:57:12.521Z,48448.00
2023-05-16T11:58:12.543Z,22400.00
2023-05-16T11:59:12.558Z,37856.00
2023-05-16T12:00:12.509Z,16292.00
2023-05-16T12:01:12.464Z,23936.00
2023-05-16T12:02:12.455Z,49792.00
2023-05-16T12:03:12.584Z,49920.00
2023-05-16T12:04:12.624Z,49696.00
2023-05-16T12:05:12.446Z,50016.00
2023-05-16T12:06:12.402Z,17312.00
2023-05-16T12:07:12.386Z,23904.00
2023-05-16T12:08:12.378Z,49408.00
2023-05-16T12:09:12.359Z,19200.00
2023-05-16T12:10:12.408Z,26304.00
2023-05-16T12:11:12.340Z,19744.00
2023-05-16T12:12:12.328Z,51744.00
2023-05-16T12:13:12.313Z,49120.00
2023-05-16T12:14:12.302Z,48512.00
2023-05-16T12:15:12.370Z,46912.00
2023-05-16T12:16:12.308Z,23520.00
2023-05-16T12:17:12.288Z,19776.00
2023-05-16T12:18:12.288Z,31840.00
2023-05-16T12:19:12.295Z,39360.00
2023-05-16T12:20:12.277Z,47936.00
2023-05-16T12:21:12.214Z,24096.00
2023-05-16T12:22:12.200Z,29632.00
2023-05-16T12:23:12.191Z,22848.00